createdAt,value
2019-01-03T00:00:53.972Z,1011.54
2019-01-03T00:01:53.952Z,1011.47
2019-01-03T00:02:53.935Z,1011.51
2019-01-03T00:03:53.960Z,1011.53
2019-01-03T00:04:53.939Z,1011.51
2019-01-03T00:05:53.919Z,1011.56
2019-01-03T00:06:53.936Z,1011.56
2019-01-03T00:07:53.899Z,1011.56
2019-01-03T00:08:53.898Z,1011.52
2019-01-03T00:09:53.882Z,1011.62
2019-01-03T00:10:53.850Z,1011.61
2019-01-03T00:11:53.841Z,1011.56
2019-01-03T00:12:53.845Z,1011.55
2019-01-03T00:13:53.816Z,1011.62
2019-01-03T00:14:53.807Z,1011.62
2019-01-03T00:15:53.826Z,1011.63
2019-01-03T00:16:53.795Z,1011.58
2019-01-03T00:17:54.066Z,1011.66
2019-01-03T00:18:53.793Z,1011.67
2019-01-03T00:19:53.771Z,1011.67
2019-01-03T00:20:53.789Z,1011.68
2019-01-03T00:21:53.758Z,1011.66
2019-01-03T00:22:53.726Z,1011.68
2019-01-03T00:23:53.736Z,1011.67
2019-01-03T00:24:53.721Z,1011.65
2019-01-03T00:25:53.695Z,1011.68
2019-01-03T00:26:53.973Z,1011.64
2019-01-03T00:27:53.677Z,1011.70
2019-01-03T00:28:53.683Z,1011.68
2019-01-03T00:29:53.670Z,1011.71
2019-01-03T00:30:53.642Z,1011.64
2019-01-03T00:31:53.639Z,1011.68
2019-01-03T00:32:53.640Z,1011.68
2019-01-03T00:33:53.676Z,1011.68
2019-01-03T00:34:53.629Z,1011.66
2019-01-03T00:35:53.598Z,1011.65
2019-01-03T00:36:53.602Z,1011.66
2019-01-03T00:37:53.597Z,1011.64
2019-01-03T00:38:53.561Z,1011.61
2019-01-03T00:39:53.585Z,1011.65
2019-01-03T00:40:53.557Z,1011.66
2019-01-03T00:41:53.603Z,1011.65
2019-01-03T00:42:53.525Z,1011.66
2019-01-03T00:43:53.526Z,1011.63
2019-01-03T00:44:53.519Z,1011.62
2019-01-03T00:45:53.511Z,1011.68
2019-01-03T00:46:53.474Z,1011.66
2019-01-03T00:47:53.484Z,1011.64
2019-01-03T00:48:53.479Z,1011.71
2019-01-03T00:49:53.510Z,1011.72
2019-01-03T00:50:53.436Z,1011.76
2019-01-03T00:51:53.429Z,1011.73
2019-01-03T00:52:53.432Z,1011.68
2019-01-03T00:53:53.402Z,1011.68
2019-01-03T00:54:53.411Z,1011.66
2019-01-03T00:55:53.383Z,1011.65
2019-01-03T00:56:53.372Z,1011.68
2019-01-03T00:57:53.364Z,1011.70
2019-01-03T00:58:53.360Z,1011.66
2019-01-03T00:59:53.382Z,1011.77
2019-01-03T01:00:53.333Z,1011.76
2019-01-03T01:01:53.324Z,1011.74
2019-01-03T01:02:53.319Z,1011.70
2019-01-03T01:03:53.316Z,1011.69
2019-01-03T01:04:53.309Z,1011.68
2019-01-03T01:05:53.307Z,1011.72
2019-01-03T01:06:53.267Z,1011.77
2019-01-03T01:07:53.259Z,1011.78
2019-01-03T01:08:53.263Z,1011.80
2019-01-03T01:09:53.237Z,1011.75
2019-01-03T01:10:53.256Z,1011.77
2019-01-03T01:11:53.257Z,1011.79
2019-01-03T01:12:53.205Z,1011.82
2019-01-03T01:13:53.200Z,1011.80
2019-01-03T01:14:53.196Z,1011.78
2019-01-03T01:15:53.483Z,1011.79
2019-01-03T01:16:53.192Z,1011.82
2019-01-03T01:17:53.162Z,1011.86
2019-01-03T01:18:53.148Z,1011.83
2019-01-03T01:19:53.154Z,1011.83
2019-01-03T01:20:53.147Z,1011.83
2019-01-03T01:21:53.151Z,1011.86
2019-01-03T01:22:53.109Z,1011.88
2019-01-03T01:23:53.138Z,1011.86
2019-01-03T01:24:53.090Z,1011.87
2019-01-03T01:25:53.100Z,1011.90
2019-01-03T01:26:53.988Z,1011.87
2019-01-03T01:27:53.075Z,1011.88
2019-01-03T01:28:53.043Z,1011.88
2019-01-03T01:29:53.032Z,1011.87
2019-01-03T01:30:53.024Z,1011.85
2019-01-03T01:31:53.025Z,1011.84
2019-01-03T01:32:53.023Z,1011.88
2019-01-03T01:33:52.994Z,1011.92
2019-01-03T01:34:52.989Z,1011.93
2019-01-03T01:35:53.026Z,1011.91
2019-01-03T01:36:52.999Z,1011.92
2019-01-03T01:37:52.955Z,1011.97
2019-01-03T01:38:52.979Z,1011.92
2019-01-03T01:39:52.928Z,1011.92
2019-01-03T01:40:52.916Z,1011.86
2019-01-03T01:41:52.941Z,1011.91
2019-01-03T01:42:52.914Z,1011.98
2019-01-03T01:43:52.896Z,1011.88
2019-01-03T01:44:52.899Z,1011.93
2019-01-03T01:45:52.876Z,1011.92
2019-01-03T01:46:52.889Z,1011.94
2019-01-03T01:47:52.863Z,1011.97
2019-01-03T01:48:52.872Z,1011.93
2019-01-03T01:49:52.856Z,1011.94
2019-01-03T01:50:52.833Z,1011.92
2019-01-03T01:51:52.818Z,1011.97
2019-01-03T01:52:52.826Z,1012.00
2019-01-03T01:53:52.817Z,1011.96
2019-01-03T01:54:52.813Z,1012.02
2019-01-03T01:55:52.783Z,1012.00
2019-01-03T01:56:52.749Z,1012.02
2019-01-03T01:57:52.783Z,1012.00
2019-01-03T01:58:52.748Z,1011.99
2019-01-03T01:59:52.718Z,1012.01
2019-01-03T02:00:52.715Z,1011.98
2019-01-03T02:01:52.711Z,1011.96
2019-01-03T02:02:52.704Z,1011.94
2019-01-03T02:03:52.702Z,1011.95
2019-01-03T02:04:52.683Z,1011.93
2019-01-03T02:05:52.657Z,1011.93
2019-01-03T02:06:52.670Z,1011.95
2019-01-03T02:07:52.666Z,1011.93
2019-01-03T02:08:52.634Z,1011.93
2019-01-03T02:09:52.623Z,1011.92
2019-01-03T02:10:52.621Z,1011.96
2019-01-03T02:11:52.619Z,1012.03
2019-01-03T02:12:52.594Z,1012.01
2019-01-03T02:13:52.624Z,1012.01
2019-01-03T02:14:52.590Z,1011.92
2019-01-03T02:15:52.584Z,1012.00
2019-01-03T02:16:52.544Z,1011.97
2019-01-03T02:17:52.543Z,1011.93
2019-01-03T02:18:52.548Z,1011.96
2019-01-03T02:19:52.538Z,1011.90
2019-01-03T02:20:52.502Z,1011.95
2019-01-03T02:21:52.505Z,1011.92
2019-01-03T02:22:52.485Z,1011.90
2019-01-03T02:23:52.507Z,1011.91
2019-01-03T02:24:52.481Z,1011.93
2019-01-03T02:25:52.459Z,1011.92
2019-01-03T02:26:52.461Z,1011.91
2019-01-03T02:27:52.429Z,1011.90
2019-01-03T02:28:52.442Z,1011.91
2019-01-03T02:29:52.422Z,1011.87
2019-01-03T02:30:52.914Z,1011.84
2019-01-03T02:31:52.399Z,1011.85
2019-01-03T02:32:52.389Z,1011.89
2019-01-03T02:33:52.382Z,1011.89
2019-01-03T02:34:52.411Z,1011.92
2019-01-03T02:35:52.406Z,1011.91
2019-01-03T02:36:52.335Z,1011.87
2019-01-03T02:37:52.368Z,1011.87
2019-01-03T02:38:52.334Z,1011.87
2019-01-03T02:39:52.337Z,1011.90
2019-01-03T02:40:52.408Z,1011.86
2019-01-03T02:41:52.297Z,1011.91
2019-01-03T02:42:52.300Z,1011.83
2019-01-03T02:43:52.284Z,1011.84
2019-01-03T02:44:52.319Z,1011.87
2019-01-03T02:45:52.264Z,1011.84
2019-01-03T02:46:52.261Z,1011.86
2019-01-03T02:47:52.236Z,1011.82
2019-01-03T02:48:52.224Z,1011.85
2019-01-03T02:49:52.245Z,1011.89
2019-01-03T02:50:52.213Z,1011.88
2019-01-03T02:51:52.193Z,1011.89
2019-01-03T02:52:52.176Z,1011.89
2019-01-03T02:53:52.172Z,1011.98
2019-01-03T02:54:52.336Z,1011.95
2019-01-03T02:55:52.145Z,1011.92
2019-01-03T02:56:52.175Z,1011.90
2019-01-03T02:57:52.134Z,1011.92
2019-01-03T02:58:52.134Z,1011.93
2019-01-03T02:59:52.101Z,1011.86
2019-01-03T03:00:52.127Z,1011.91
2019-01-03T03:01:52.128Z,1011.88
2019-01-03T03:02:52.069Z,1011.87
2019-01-03T03:03:52.096Z,1011.83
2019-01-03T03:04:52.062Z,1011.91
2019-01-03T03:05:52.090Z,1011.91
2019-01-03T03:06:52.051Z,1011.92
2019-01-03T03:07:52.021Z,1011.91
2019-01-03T03:08:52.013Z,1011.87
2019-01-03T03:09:52.020Z,1011.92
2019-01-03T03:10:52.050Z,1011.88
2019-01-03T03:11:52.020Z,1011.87
2019-01-03T03:12:51.995Z,1011.88
2019-01-03T03:13:51.977Z,1011.89
2019-01-03T03:14:51.949Z,1011.92
2019-01-03T03:15:51.939Z,1011.89
2019-01-03T03:16:51.975Z,1011.89
2019-01-03T03:17:51.926Z,1011.89
2019-01-03T03:18:51.926Z,1011.86
2019-01-03T03:19:51.896Z,1011.85
2019-01-03T03:20:51.895Z,1011.90
2019-01-03T03:21:51.896Z,1011.88
2019-01-03T03:22:51.864Z,1011.89
2019-01-03T03:23:51.889Z,1011.87
2019-01-03T03:24:53.505Z,1011.83
2019-01-03T03:25:51.851Z,1011.88
2019-01-03T03:26:51.853Z,1011.86
2019-01-03T03:27:51.819Z,1011.82
2019-01-03T03:28:51.823Z,1011.83
2019-01-03T03:29:51.812Z,1011.87
2019-01-03T03:30:51.807Z,1011.89
2019-01-03T03:31:51.782Z,1011.88
2019-01-03T03:32:51.771Z,1011.87
2019-01-03T03:33:51.771Z,1011.89
2019-01-03T03:34:51.751Z,1011.88
2019-01-03T03:35:51.780Z,1011.89
2019-01-03T03:36:51.728Z,1011.90
2019-01-03T03:37:51.731Z,1011.89
2019-01-03T03:38:51.732Z,1011.88
2019-01-03T03:39:51.693Z,1011.85
2019-01-03T03:40:51.691Z,1011.83
2019-01-03T03:41:51.683Z,1011.80
2019-01-03T03:42:51.953Z,1011.83
2019-01-03T03:43:51.737Z,1011.88
2019-01-03T03:44:51.647Z,1011.87
2019-01-03T03:45:51.677Z,1011.94
2019-01-03T03:46:51.640Z,1011.90
2019-01-03T03:47:51.621Z,1011.89
2019-01-03T03:48:51.665Z,1011.89
2019-01-03T03:49:51.610Z,1011.92
2019-01-03T03:50:51.594Z,1011.87
2019-01-03T03:51:51.575Z,1011.89
2019-01-03T03:52:51.606Z,1011.88
2019-01-03T03:53:51.607Z,1011.94
2019-01-03T03:54:51.567Z,1011.89
2019-01-03T03:55:51.536Z,1011.88
2019-01-03T03:56:51.541Z,1011.93
2019-01-03T03:57:51.525Z,1011.91
2019-01-03T03:58:51.526Z,1011.88
2019-01-03T03:59:51.492Z,1011.86
2019-01-03T04:00:51.505Z,1011.85
2019-01-03T04:01:51.489Z,1011.89
2019-01-03T04:02:51.482Z,1011.86
2019-01-03T04:03:51.527Z,1011.86
2019-01-03T04:04:51.441Z,1011.85
2019-01-03T04:05:51.441Z,1011.91
2019-01-03T04:06:51.417Z,1011.91
2019-01-03T04:07:51.444Z,1011.84
2019-01-03T04:08:51.465Z,1011.85
2019-01-03T04:09:51.397Z,1011.88
2019-01-03T04:10:51.400Z,1011.92
2019-01-03T04:11:51.381Z,1011.91
2019-01-03T04:12:51.361Z,1011.88
2019-01-03T04:13:51.361Z,1011.87
2019-01-03T04:14:51.380Z,1011.86
2019-01-03T04:15:51.327Z,1011.84
2019-01-03T04:16:51.332Z,1011.85
2019-01-03T04:17:51.333Z,1011.82
2019-01-03T04:18:51.324Z,1011.83
2019-01-03T04:19:51.321Z,1011.78
2019-01-03T04:20:51.286Z,1011.79
2019-01-03T04:21:51.291Z,1011.72
2019-01-03T04:22:51.274Z,1011.77
2019-01-03T04:23:51.246Z,1011.81
2019-01-03T04:24:51.272Z,1011.76
2019-01-03T04:25:51.238Z,1011.81
2019-01-03T04:26:51.249Z,1011.80
2019-01-03T04:27:51.240Z,1011.78
2019-01-03T04:28:51.239Z,1011.78
2019-01-03T04:29:51.235Z,1011.80
2019-01-03T04:30:51.203Z,1011.74
2019-01-03T04:31:51.203Z,1011.76
2019-01-03T04:32:51.163Z,1011.79
2019-01-03T04:33:51.166Z,1011.76
2019-01-03T04:34:51.149Z,1011.78
2019-01-03T04:35:51.123Z,1011.72
2019-01-03T04:36:51.121Z,1011.73
2019-01-03T04:37:51.108Z,1011.74
2019-01-03T04:38:51.112Z,1011.71
2019-01-03T04:39:51.108Z,1011.78
2019-01-03T04:40:51.096Z,1011.76
2019-01-03T04:41:51.090Z,1011.76
2019-01-03T04:42:51.087Z,1011.77
2019-01-03T04:43:51.041Z,1011.77
2019-01-03T04:44:51.069Z,1011.75
2019-01-03T04:45:51.037Z,1011.75
2019-01-03T04:46:51.061Z,1011.79
2019-01-03T04:47:51.002Z,1011.77
2019-01-03T04:48:50.994Z,1011.75
2019-01-03T04:49:51.024Z,1011.78
2019-01-03T04:50:51.027Z,1011.75
2019-01-03T04:51:50.964Z,1011.79
2019-01-03T04:52:50.981Z,1011.73
2019-01-03T04:53:50.955Z,1011.78
2019-01-03T04:54:50.960Z,1011.71
2019-01-03T04:55:50.957Z,1011.76
2019-01-03T04:56:50.909Z,1011.72
2019-01-03T04:57:50.932Z,1011.77
2019-01-03T04:58:50.916Z,1011.69
2019-01-03T04:59:50.878Z,1011.70
2019-01-03T05:00:50.928Z,1011.71
2019-01-03T05:01:50.870Z,1011.70
2019-01-03T05:02:50.898Z,1011.70
2019-01-03T05:03:50.841Z,1011.63
2019-01-03T05:04:50.861Z,1011.68
2019-01-03T05:05:50.839Z,1011.69
2019-01-03T05:06:50.805Z,1011.66
2019-01-03T05:07:50.804Z,1011.71
2019-01-03T05:08:50.783Z,1011.71
2019-01-03T05:09:50.797Z,1011.73
2019-01-03T05:10:50.784Z,1011.75
2019-01-03T05:11:50.752Z,1011.73
2019-01-03T05:12:50.772Z,1011.67
2019-01-03T05:13:50.747Z,1011.69
2019-01-03T05:14:50.726Z,1011.74
2019-01-03T05:15:50.748Z,1011.79
2019-01-03T05:16:50.718Z,1011.73
2019-01-03T05:17:50.717Z,1011.69
2019-01-03T05:18:50.690Z,1011.72
2019-01-03T05:19:50.676Z,1011.72
2019-01-03T05:20:50.692Z,1011.78
2019-01-03T05:21:50.670Z,1011.73
2019-01-03T05:22:50.668Z,1011.77
2019-01-03T05:23:56.790Z,1011.77
2019-01-03T05:24:51.620Z,1011.70
2019-01-03T05:25:50.631Z,1011.68
2019-01-03T05:26:50.600Z,1011.69
2019-01-03T05:27:50.593Z,1011.68
2019-01-03T05:28:50.588Z,1011.65
2019-01-03T05:29:50.601Z,1011.69
2019-01-03T05:30:50.582Z,1011.70
2019-01-03T05:31:50.582Z,1011.76
2019-01-03T05:32:50.554Z,1011.77
2019-01-03T05:33:50.576Z,1011.77
2019-01-03T05:34:50.522Z,1011.71
2019-01-03T05:35:50.540Z,1011.77
2019-01-03T05:36:50.512Z,1011.80
2019-01-03T05:37:50.497Z,1011.88
2019-01-03T05:38:50.475Z,1011.91
2019-01-03T05:39:50.474Z,1011.93
2019-01-03T05:40:50.475Z,1011.97
2019-01-03T05:41:50.475Z,1012.02
2019-01-03T05:42:50.448Z,1011.95
2019-01-03T05:43:50.431Z,1011.93
2019-01-03T05:44:50.428Z,1011.88
2019-01-03T05:45:50.462Z,1011.91
2019-01-03T05:46:50.448Z,1011.87
2019-01-03T05:47:50.402Z,1011.86
2019-01-03T05:48:50.387Z,1011.97
2019-01-03T05:49:50.371Z,1011.92
2019-01-03T05:50:50.354Z,1011.95
2019-01-03T05:51:50.378Z,1011.89
2019-01-03T05:52:50.344Z,1011.91
2019-01-03T05:53:50.350Z,1011.89
2019-01-03T05:54:50.312Z,1011.90
2019-01-03T05:55:50.303Z,1011.87
2019-01-03T05:56:50.308Z,1011.84
2019-01-03T05:57:50.299Z,1011.79
2019-01-03T05:58:50.297Z,1011.81
2019-01-03T05:59:50.259Z,1011.85
2019-01-03T06:00:50.269Z,1011.83
2019-01-03T06:01:50.264Z,1011.83
2019-01-03T06:02:50.257Z,1011.81
2019-01-03T06:03:50.223Z,1011.86
2019-01-03T06:04:50.224Z,1011.82
2019-01-03T06:05:50.215Z,1011.85
2019-01-03T06:06:50.221Z,1011.87
2019-01-03T06:07:50.179Z,1011.84
2019-01-03T06:08:50.211Z,1011.87
2019-01-03T06:09:50.182Z,1011.87
2019-01-03T06:10:50.148Z,1011.91
2019-01-03T06:11:50.207Z,1011.81
2019-01-03T06:12:50.135Z,1011.77
2019-01-03T06:13:50.145Z,1011.70
2019-01-03T06:14:50.129Z,1011.76
2019-01-03T06:15:50.104Z,1011.88
2019-01-03T06:16:50.099Z,1011.86
2019-01-03T06:17:50.083Z,1011.85
2019-01-03T06:18:50.128Z,1011.92
2019-01-03T06:19:50.057Z,1011.90
2019-01-03T06:20:50.064Z,1011.90
2019-01-03T06:21:50.079Z,1011.89
2019-01-03T06:22:50.042Z,1011.88
2019-01-03T06:23:50.020Z,1011.83
2019-01-03T06:24:50.011Z,1011.84
2019-01-03T06:25:50.003Z,1011.92
2019-01-03T06:26:50.027Z,1011.96
2019-01-03T06:27:49.983Z,1011.98
2019-01-03T06:28:49.985Z,1011.98
2019-01-03T06:29:49.972Z,1011.98
2019-01-03T06:30:49.988Z,1012.01
2019-01-03T06:31:49.944Z,1011.99
2019-01-03T06:32:49.927Z,1012.03
2019-01-03T06:33:49.932Z,1012.02
2019-01-03T06:34:49.928Z,1012.04
2019-01-03T06:35:49.895Z,1011.96
2019-01-03T06:36:49.903Z,1012.06
2019-01-03T06:37:49.919Z,1012.03
2019-01-03T06:38:49.865Z,1012.04
2019-01-03T06:39:49.857Z,1012.03
2019-01-03T06:40:49.861Z,1012.06
2019-01-03T06:41:49.873Z,1012.08
2019-01-03T06:42:49.855Z,1012.13
2019-01-03T06:43:49.852Z,1012.07
2019-01-03T06:44:49.848Z,1012.14
2019-01-03T06:45:49.812Z,1012.15
2019-01-03T06:46:49.801Z,1012.16
2019-01-03T06:47:49.798Z,1012.13
2019-01-03T06:48:49.769Z,1012.10
2019-01-03T06:49:49.805Z,1012.11
2019-01-03T06:50:49.744Z,1012.16
2019-01-03T06:51:49.748Z,1012.10
2019-01-03T06:52:49.747Z,1012.12
2019-01-03T06:53:49.752Z,1012.10
2019-01-03T06:54:49.703Z,1012.13
2019-01-03T06:55:49.693Z,1012.13
2019-01-03T06:56:49.698Z,1012.14
2019-01-03T06:57:49.689Z,1012.22
2019-01-03T06:58:49.680Z,1012.18
2019-01-03T06:59:49.650Z,1012.22
2019-01-03T07:00:49.700Z,1012.25
2019-01-03T07:01:49.640Z,1012.21
2019-01-03T07:02:49.647Z,1012.27
2019-01-03T07:03:49.616Z,1012.23
2019-01-03T07:04:49.603Z,1012.17
2019-01-03T07:05:49.613Z,1012.19
2019-01-03T07:06:49.603Z,1012.20
2019-01-03T07:07:49.643Z,1012.27
2019-01-03T07:08:49.563Z,1012.27
2019-01-03T07:09:49.573Z,1012.24
2019-01-03T07:10:49.538Z,1012.25
2019-01-03T07:11:49.531Z,1012.21
2019-01-03T07:12:49.552Z,1012.22
2019-01-03T07:13:49.549Z,1012.29
2019-01-03T07:14:49.508Z,1012.26
2019-01-03T07:15:49.491Z,1012.30
2019-01-03T07:16:49.492Z,1012.26
2019-01-03T07:17:49.487Z,1012.31
2019-01-03T07:18:49.486Z,1012.31
2019-01-03T07:19:49.473Z,1012.28
2019-01-03T07:20:49.446Z,1012.33
2019-01-03T07:21:49.444Z,1012.34
2019-01-03T07:22:49.438Z,1012.32
2019-01-03T07:23:49.411Z,1012.34
2019-01-03T07:24:49.407Z,1012.39
2019-01-03T07:25:49.412Z,1012.41
2019-01-03T07:26:49.430Z,1012.41
2019-01-03T07:27:49.391Z,1012.44
2019-01-03T07:28:49.365Z,1012.46
2019-01-03T07:29:49.360Z,1012.48
2019-01-03T07:30:49.358Z,1012.49
2019-01-03T07:31:49.337Z,1012.46
2019-01-03T07:32:49.354Z,1012.54
2019-01-03T07:33:49.331Z,1012.49
2019-01-03T07:34:49.310Z,1012.53
2019-01-03T07:35:49.289Z,1012.50
2019-01-03T07:36:49.280Z,1012.54
2019-01-03T07:37:49.319Z,1012.51
2019-01-03T07:38:49.290Z,1012.51
2019-01-03T07:39:49.247Z,1012.54
2019-01-03T07:40:49.239Z,1012.50
2019-01-03T07:41:49.241Z,1012.50
2019-01-03T07:42:49.231Z,1012.52
2019-01-03T07:43:49.242Z,1012.52
2019-01-03T07:44:49.263Z,1012.51
2019-01-03T07:45:49.200Z,1012.55
2019-01-03T07:46:49.178Z,1012.55
2019-01-03T07:47:49.167Z,1012.62
2019-01-03T07:48:49.193Z,1012.63
2019-01-03T07:49:49.159Z,1012.66
2019-01-03T07:50:49.157Z,1012.64
2019-01-03T07:51:49.124Z,1012.59
2019-01-03T07:52:49.159Z,1012.60
2019-01-03T07:53:49.123Z,1012.65
2019-01-03T07:54:49.117Z,1012.70
2019-01-03T07:55:49.086Z,1012.75
2019-01-03T07:56:49.078Z,1012.72
2019-01-03T07:57:49.113Z,1012.72
2019-01-03T07:58:49.107Z,1012.72
2019-01-03T07:59:49.043Z,1012.70
2019-01-03T08:00:49.033Z,1012.72
2019-01-03T08:01:49.038Z,1012.77
2019-01-03T08:02:49.068Z,1012.79
2019-01-03T08:03:49.029Z,1012.73
2019-01-03T08:04:49.035Z,1012.78
2019-01-03T08:05:48.991Z,1012.77
2019-01-03T08:06:48.994Z,1012.77
2019-01-03T08:07:48.964Z,1012.77
2019-01-03T08:08:49.016Z,1012.79
2019-01-03T08:09:48.962Z,1012.87
2019-01-03T08:10:48.941Z,1012.85
2019-01-03T08:11:48.919Z,1012.81
2019-01-03T08:12:48.945Z,1012.81
2019-01-03T08:13:48.914Z,1012.79
2019-01-03T08:14:48.910Z,1012.74
2019-01-03T08:15:48.878Z,1012.74
2019-01-03T08:16:48.875Z,1012.71
2019-01-03T08:17:48.865Z,1012.73
2019-01-03T08:18:48.878Z,1012.81
2019-01-03T08:19:48.866Z,1012.79
2019-01-03T08:20:48.831Z,1012.77
2019-01-03T08:21:48.834Z,1012.73
2019-01-03T08:22:48.875Z,1012.76
2019-01-03T08:23:48.796Z,1012.76
2019-01-03T08:24:48.802Z,1012.68
2019-01-03T08:25:48.789Z,1012.62
2019-01-03T08:26:48.790Z,1012.62
2019-01-03T08:27:48.779Z,1012.61
2019-01-03T08:28:48.775Z,1012.60
2019-01-03T08:29:48.758Z,1012.55
2019-01-03T08:30:48.741Z,1012.64
2019-01-03T08:31:48.723Z,1012.68
2019-01-03T08:32:48.714Z,1012.65
2019-01-03T08:33:48.696Z,1012.64
2019-01-03T08:34:48.717Z,1012.61
2019-01-03T08:35:48.675Z,1012.60
2019-01-03T08:36:48.662Z,1012.63
2019-01-03T08:37:48.669Z,1012.63
2019-01-03T08:38:48.667Z,1012.60
2019-01-03T08:39:48.662Z,1012.53
2019-01-03T08:40:48.628Z,1012.47
2019-01-03T08:41:48.621Z,1012.47
2019-01-03T08:42:48.601Z,1012.47
2019-01-03T08:43:48.632Z,1012.48
2019-01-03T08:44:48.593Z,1012.54
2019-01-03T08:45:48.596Z,1012.49
2019-01-03T08:46:48.594Z,1012.52
2019-01-03T08:47:48.549Z,1012.48
2019-01-03T08:48:48.544Z,1012.45
2019-01-03T08:49:48.545Z,1012.55
2019-01-03T08:50:48.549Z,1012.53
2019-01-03T08:51:48.512Z,1012.53
2019-01-03T08:52:48.497Z,1012.51
2019-01-03T08:53:48.484Z,1012.54
2019-01-03T08:54:48.501Z,1012.62
2019-01-03T08:55:48.478Z,1012.60
2019-01-03T08:56:48.461Z,1012.60
2019-01-03T08:57:48.461Z,1012.62
2019-01-03T08:58:48.434Z,1012.61
2019-01-03T08:59:48.461Z,1012.59
2019-01-03T09:00:48.416Z,1012.60
2019-01-03T09:01:48.458Z,1012.58
2019-01-03T09:02:48.408Z,1012.59
2019-01-03T09:03:48.382Z,1012.58
2019-01-03T09:04:48.410Z,1012.53
2019-01-03T09:05:48.364Z,1012.52
2019-01-03T09:06:49.016Z,1012.55
2019-01-03T09:07:48.338Z,1012.60
2019-01-03T09:08:48.338Z,1012.56
2019-01-03T09:09:48.324Z,1012.56
2019-01-03T09:10:48.371Z,1012.60
2019-01-03T09:11:48.312Z,1012.59
2019-01-03T09:12:48.290Z,1012.59
2019-01-03T09:13:48.287Z,1012.58
2019-01-03T09:14:48.296Z,1012.57
2019-01-03T09:15:48.273Z,1012.60
2019-01-03T09:16:48.249Z,1012.65
2019-01-03T09:17:48.239Z,1012.58
2019-01-03T09:18:48.225Z,1012.71
2019-01-03T09:19:48.225Z,1012.70
2019-01-03T09:20:48.220Z,1012.72
2019-01-03T09:21:48.194Z,1012.71
2019-01-03T09:22:48.210Z,1012.69
2019-01-03T09:23:48.218Z,1012.70
2019-01-03T09:24:48.173Z,1012.66
2019-01-03T09:25:48.185Z,1012.60
2019-01-03T09:26:48.141Z,1012.67
2019-01-03T09:27:48.182Z,1012.66
2019-01-03T09:28:48.119Z,1012.63
2019-01-03T09:29:48.113Z,1012.65
2019-01-03T09:30:48.112Z,1012.61
2019-01-03T09:31:48.128Z,1012.68
2019-01-03T09:32:48.079Z,1012.67
2019-01-03T09:33:48.068Z,1012.76
2019-01-03T09:34:48.068Z,1012.73
2019-01-03T09:35:48.061Z,1012.74
2019-01-03T09:36:48.042Z,1012.73
2019-01-03T09:37:48.025Z,1012.74
2019-01-03T09:38:48.084Z,1012.75
2019-01-03T09:39:48.012Z,1012.71
2019-01-03T09:40:48.027Z,1012.66
2019-01-03T09:41:47.984Z,1012.61
2019-01-03T09:42:47.984Z,1012.59
2019-01-03T09:43:47.975Z,1012.49
2019-01-03T09:44:47.949Z,1012.56
2019-01-03T09:45:47.962Z,1012.55
2019-01-03T09:46:47.931Z,1012.57
2019-01-03T09:47:47.927Z,1012.54
2019-01-03T09:48:47.908Z,1012.53
2019-01-03T09:49:47.928Z,1012.54
2019-01-03T09:50:47.905Z,1012.52
2019-01-03T09:51:47.893Z,1012.53
2019-01-03T09:52:47.866Z,1012.54
2019-01-03T09:53:47.857Z,1012.51
2019-01-03T09:54:47.852Z,1012.55
2019-01-03T09:55:47.855Z,1012.52
2019-01-03T09:56:47.822Z,1012.50
2019-01-03T09:57:47.856Z,1012.50
2019-01-03T09:58:47.822Z,1012.52
2019-01-03T09:59:47.790Z,1012.50
2019-01-03T10:00:47.828Z,1012.48
2019-01-03T10:01:47.779Z,1012.51
2019-01-03T10:02:47.778Z,1012.43
2019-01-03T10:03:47.748Z,1012.45
2019-01-03T10:04:47.739Z,1012.36
2019-01-03T10:05:47.766Z,1012.30
2019-01-03T10:06:47.731Z,1012.37
2019-01-03T10:07:47.707Z,1012.35
2019-01-03T10:08:47.694Z,1012.33
2019-01-03T10:09:47.725Z,1012.42
2019-01-03T10:10:47.689Z,1012.32
2019-01-03T10:11:47.680Z,1012.35
2019-01-03T10:12:47.655Z,1012.33
2019-01-03T10:13:47.645Z,1012.30
2019-01-03T10:14:47.631Z,1012.27
2019-01-03T10:15:47.624Z,1012.31
2019-01-03T10:16:47.631Z,1012.39
2019-01-03T10:17:47.642Z,1012.31
2019-01-03T10:18:47.587Z,1012.38
2019-01-03T10:19:47.624Z,1012.38
2019-01-03T10:20:47.585Z,1012.36
2019-01-03T10:21:47.575Z,1012.32
2019-01-03T10:22:47.545Z,1012.39
2019-01-03T10:23:47.547Z,1012.38
2019-01-03T10:24:47.573Z,1012.28
2019-01-03T10:25:47.516Z,1012.27
2019-01-03T10:26:47.527Z,1012.03
2019-01-03T10:27:47.502Z,1012.10
2019-01-03T10:28:47.499Z,1012.10
2019-01-03T10:29:47.471Z,1012.15
2019-01-03T10:30:47.460Z,1011.82
2019-01-03T10:31:47.470Z,1011.84
2019-01-03T10:32:47.444Z,1011.88
2019-01-03T10:33:47.467Z,1011.80
2019-01-03T10:34:47.427Z,1011.83
2019-01-03T10:35:47.412Z,1011.83
2019-01-03T10:36:47.410Z,1011.88
2019-01-03T10:37:47.383Z,1011.83
2019-01-03T10:38:47.372Z,1011.85
2019-01-03T10:39:47.362Z,1011.97
2019-01-03T10:40:47.352Z,1011.90
2019-01-03T10:41:47.390Z,1011.91
2019-01-03T10:42:47.330Z,1011.93
2019-01-03T10:43:47.342Z,1011.92
2019-01-03T10:44:47.337Z,1011.87
2019-01-03T10:45:47.298Z,1011.91
2019-01-03T10:46:47.302Z,1011.92
2019-01-03T10:47:47.281Z,1011.91
2019-01-03T10:48:47.267Z,1011.93
2019-01-03T10:49:47.261Z,1011.91
2019-01-03T10:50:47.256Z,1011.99
2019-01-03T10:51:47.258Z,1011.92
2019-01-03T10:52:47.265Z,1011.98
2019-01-03T10:53:47.214Z,1011.91
2019-01-03T10:54:47.214Z,1011.97
2019-01-03T10:55:47.194Z,1011.97
2019-01-03T10:56:47.213Z,1011.97
2019-01-03T10:57:47.179Z,1011.92
2019-01-03T10:58:47.199Z,1011.89
2019-01-03T10:59:47.153Z,1011.89
2019-01-03T11:00:47.148Z,1011.88
2019-01-03T11:01:47.174Z,1011.89
2019-01-03T11:02:47.140Z,1011.79
2019-01-03T11:03:47.117Z,1011.86
2019-01-03T11:04:47.111Z,1011.86
2019-01-03T11:05:47.793Z,1011.84
2019-01-03T11:06:47.081Z,1011.84
2019-01-03T11:07:47.085Z,1011.82
2019-01-03T11:08:47.058Z,1011.74
2019-01-03T11:09:47.067Z,1011.71
2019-01-03T11:10:47.032Z,1011.73
2019-01-03T11:11:47.026Z,1011.78
2019-01-03T11:12:47.075Z,1011.73
2019-01-03T11:13:47.014Z,1011.72
2019-01-03T11:14:47.047Z,1011.71
2019-01-03T11:15:46.990Z,1011.75
2019-01-03T11:16:46.975Z,1011.76
2019-01-03T11:17:46.973Z,1011.77
2019-01-03T11:18:46.951Z,1011.78
2019-01-03T11:19:46.949Z,1011.75
2019-01-03T11:20:46.945Z,1011.71
2019-01-03T11:21:46.940Z,1011.77
2019-01-03T11:22:46.998Z,1011.76
2019-01-03T11:23:46.910Z,1011.77
2019-01-03T11:24:46.904Z,1011.74
2019-01-03T11:25:46.884Z,1011.71
2019-01-03T11:26:46.864Z,1011.70
2019-01-03T11:27:46.865Z,1011.73
2019-01-03T11:28:46.871Z,1011.69
2019-01-03T11:29:46.854Z,1011.69
2019-01-03T11:30:46.861Z,1011.68
2019-01-03T11:31:46.852Z,1011.67
2019-01-03T11:32:47.849Z,1011.66
2019-01-03T11:33:46.844Z,1011.61
2019-01-03T11:34:46.824Z,1011.66
2019-01-03T11:35:46.829Z,1011.65
2019-01-03T11:36:46.783Z,1011.58
2019-01-03T11:37:46.835Z,1011.54
2019-01-03T11:38:46.771Z,1011.54
2019-01-03T11:39:46.762Z,1011.53
2019-01-03T11:40:46.764Z,1011.51
2019-01-03T11:41:46.742Z,1011.51
2019-01-03T11:42:46.794Z,1011.54
2019-01-03T11:43:46.701Z,1011.46
2019-01-03T11:44:46.691Z,1011.36
2019-01-03T11:45:46.668Z,1011.31
2019-01-03T11:46:46.661Z,1011.32
2019-01-03T11:47:46.656Z,1011.28
2019-01-03T11:48:46.631Z,1011.27
2019-01-03T11:49:46.649Z,1011.21
2019-01-03T11:50:46.609Z,1011.30
2019-01-03T11:51:46.599Z,1011.29
2019-01-03T11:52:46.851Z,1011.28
2019-01-03T11:53:46.585Z,1011.31
2019-01-03T11:54:46.563Z,1011.32
2019-01-03T11:55:46.576Z,1011.27
2019-01-03T11:56:46.550Z,1011.30
2019-01-03T11:57:46.557Z,1011.27
2019-01-03T11:58:46.557Z,1011.30
2019-01-03T11:59:46.513Z,1011.25
2019-01-03T12:00:46.500Z,1011.30
2019-01-03T12:01:46.493Z,1011.32
2019-01-03T12:02:46.503Z,1011.27
2019-01-03T12:03:46.497Z,1011.29
2019-01-03T12:04:46.461Z,1011.30
2019-01-03T12:05:46.476Z,1011.23